sensor_id;sensor_type;location;lat;lon;timestamp;temperature;humidity
4306;DHT22;2166;49.926;8.608;2022-08-01T00:00:06;23.30;67.60
4306;DHT22;2166;49.926;8.608;2022-08-01T00:02:36;23.30;67.60
4306;DHT22;2166;49.926;8.608;2022-08-01T00:05:08;23.30;67.60
4306;DHT22;2166;49.926;8.608;2022-08-01T00:07:37;23.20;67.60
4306;DHT22;2166;49.926;8.608;2022-08-01T00:10:08;23.20;67.70
4306;DHT22;2166;49.926;8.608;2022-08-01T00:12:37;23.10;67.90
4306;DHT22;2166;49.926;8.608;2022-08-01T00:15:06;23.10;68.00
4306;DHT22;2166;49.926;8.608;2022-08-01T00:17:35;23.00;68.00
4306;DHT22;2166;49.926;8.608;2022-08-01T00:20:07;23.00;68.10
4306;DHT22;2166;49.926;8.608;2022-08-01T00:22:37;23.00;68.10
4306;DHT22;2166;49.926;8.608;2022-08-01T00:25:06;22.90;67.90
4306;DHT22;2166;49.926;8.608;2022-08-01T00:27:34;22.90;67.80
4306;DHT22;2166;49.926;8.608;2022-08-01T00:30:05;22.90;68.20
4306;DHT22;2166;49.926;8.608;2022-08-01T00:32:41;22.80;68.30
4306;DHT22;2166;49.926;8.608;2022-08-01T00:35:11;22.80;68.50
4306;DHT22;2166;49.926;8.608;2022-08-01T00:37:40;22.70;68.50
4306;DHT22;2166;49.926;8.608;2022-08-01T00:40:08;22.60;68.70
4306;DHT22;2166;49.926;8.608;2022-08-01T00:42:36;22.50;68.90
4306;DHT22;2166;49.926;8.608;2022-08-01T00:45:10;22.40;68.80
4306;DHT22;2166;49.926;8.608;2022-08-01T00:47:38;22.40;68.90
4306;DHT22;2166;49.926;8.608;2022-08-01T00:50:07;22.40;69.10
4306;DHT22;2166;49.926;8.608;2022-08-01T00:52:39;22.30;69.10
4306;DHT22;2166;49.926;8.608;2022-08-01T00:55:08;22.30;69.20
4306;DHT22;2166;49.926;8.608;2022-08-01T00:57:41;22.20;69.30
4306;DHT22;2166;49.926;8.608;2022-08-01T01:00:29;22.10;69.50
4306;DHT22;2166;49.926;8.608;2022-08-01T01:03:17;22.10;69.50
4306;DHT22;2166;49.926;8.608;2022-08-01T01:05:54;22.00;69.80
4306;DHT22;2166;49.926;8.608;2022-08-01T01:08:31;22.00;69.90
4306;DHT22;2166;49.926;8.608;2022-08-01T01:11:04;22.00;69.90
4306;DHT22;2166;49.926;8.608;2022-08-01T01:13:38;21.90;70.10
4306;DHT22;2166;49.926;8.608;2022-08-01T01:16:19;21.80;70.20
4306;DHT22;2166;49.926;8.608;2022-08-01T01:18:51;21.80;70.50
4306;DHT22;2166;49.926;8.608;2022-08-01T01:21:33;21.70;70.60
4306;DHT22;2166;49.926;8.608;2022-08-01T01:24:13;21.70;70.70
4306;DHT22;2166;49.926;8.608;2022-08-01T01:26:50;21.60;70.60
4306;DHT22;2166;49.926;8.608;2022-08-01T01:29:26;21.60;70.90
4306;DHT22;2166;49.926;8.608;2022-08-01T01:32:19;21.60;70.70
4306;DHT22;2166;49.926;8.608;2022-08-01T01:34:58;21.50;70.90
4306;DHT22;2166;49.926;8.608;2022-08-01T01:37:27;21.50;70.90
4306;DHT22;2166;49.926;8.608;2022-08-01T01:39:58;21.50;70.90
4306;DHT22;2166;49.926;8.608;2022-08-01T01:42:28;21.40;70.90
4306;DHT22;2166;49.926;8.608;2022-08-01T01:44:58;21.40;71.00
4306;DHT22;2166;49.926;8.608;2022-08-01T01:47:28;21.30;71.10
4306;DHT22;2166;49.926;8.608;2022-08-01T01:49:58;21.20;71.50
4306;DHT22;2166;49.926;8.608;2022-08-01T01:52:28;21.10;71.50
4306;DHT22;2166;49.926;8.608;2022-08-01T01:54:58;21.10;71.50
4306;DHT22;2166;49.926;8.608;2022-08-01T01:57:28;21.10;71.60
4306;DHT22;2166;49.926;8.608;2022-08-01T01:59:59;21.00;71.70
4306;DHT22;2166;49.926;8.608;2022-08-01T02:02:30;21.00;71.90
4306;DHT22;2166;49.926;8.608;2022-08-01T02:04:59;20.80;72.00
4306;DHT22;2166;49.926;8.608;2022-08-01T02:07:28;20.80;72.00
4306;DHT22;2166;49.926;8.608;2022-08-01T02:09:57;20.70;72.10
4306;DHT22;2166;49.926;8.608;2022-08-01T02:12:30;20.70;72.40
4306;DHT22;2166;49.926;8.608;2022-08-01T02:15:00;20.60;72.60
4306;DHT22;2166;49.926;8.608;2022-08-01T02:17:31;20.50;72.50
4306;DHT22;2166;49.926;8.608;2022-08-01T02:19:59;20.40;72.60
4306;DHT22;2166;49.926;8.608;2022-08-01T02:22:30;20.30;73.00
4306;DHT22;2166;49.926;8.608;2022-08-01T02:25:03;20.30;73.00
4306;DHT22;2166;49.926;8.608;2022-08-01T02:27:36;20.30;73.10
4306;DHT22;2166;49.926;8.608;2022-08-01T02:30:11;20.30;73.30
4306;DHT22;2166;49.926;8.608;2022-08-01T02:32:44;20.20;73.40
4306;DHT22;2166;49.926;8.608;2022-08-01T02:35:19;20.30;73.30
4306;DHT22;2166;49.926;8.608;2022-08-01T02:37:48;20.30;73.20
4306;DHT22;2166;49.926;8.608;2022-08-01T02:40:18;20.30;73.20
4306;DHT22;2166;49.926;8.608;2022-08-01T02:42:50;20.40;73.10
4306;DHT22;2166;49.926;8.608;2022-08-01T02:45:24;20.50;73.00
4306;DHT22;2166;49.926;8.608;2022-08-01T02:47:57;20.50;72.90
4306;DHT22;2166;49.926;8.608;2022-08-01T02:50:28;20.60;72.80
4306;DHT22;2166;49.926;8.608;2022-08-01T02:52:58;20.70;72.60
4306;DHT22;2166;49.926;8.608;2022-08-01T02:55:28;20.70;72.40
4306;DHT22;2166;49.926;8.608;2022-08-01T02:57:59;20.80;72.40
4306;DHT22;2166;49.926;8.608;2022-08-01T03:00:31;20.80;72.40
4306;DHT22;2166;49.926;8.608;2022-08-01T03:03:00;20.80;72.40
4306;DHT22;2166;49.926;8.608;2022-08-01T03:05:30;20.90;72.20
4306;DHT22;2166;49.926;8.608;2022-08-01T03:08:00;20.90;72.20
4306;DHT22;2166;49.926;8.608;2022-08-01T03:10:31;20.90;72.20
4306;DHT22;2166;49.926;8.608;2022-08-01T03:13:01;20.80;72.20
4306;DHT22;2166;49.926;8.608;2022-08-01T03:15:33;20.80;72.20
4306;DHT22;2166;49.926;8.608;2022-08-01T03:18:03;20.70;72.50
4306;DHT22;2166;49.926;8.608;2022-08-01T03:20:33;20.70;72.70
4306;DHT22;2166;49.926;8.608;2022-08-01T03:23:04;20.60;72.70
4306;DHT22;2166;49.926;8.608;2022-08-01T03:25:35;20.60;72.80
4306;DHT22;2166;49.926;8.608;2022-08-01T03:28:06;20.60;72.80
4306;DHT22;2166;49.926;8.608;2022-08-01T03:30:38;20.50;73.00
4306;DHT22;2166;49.926;8.608;2022-08-01T03:33:07;20.50;73.00
4306;DHT22;2166;49.926;8.608;2022-08-01T03:35:50;20.40;73.20
4306;DHT22;2166;49.926;8.608;2022-08-01T03:38:23;20.40;73.30
4306;DHT22;2166;49.926;8.608;2022-08-01T03:40:53;20.30;73.40
4306;DHT22;2166;49.926;8.608;2022-08-01T03:43:29;20.30;73.60
4306;DHT22;2166;49.926;8.608;2022-08-01T03:46:04;20.20;73.70
4306;DHT22;2166;49.926;8.608;2022-08-01T03:48:38;20.10;73.80
4306;DHT22;2166;49.926;8.608;2022-08-01T03:51:08;20.10;73.90
4306;DHT22;2166;49.926;8.608;2022-08-01T03:53:37;20.00;74.00
4306;DHT22;2166;49.926;8.608;2022-08-01T03:56:09;19.90;74.10
4306;DHT22;2166;49.926;8.608;2022-08-01T03:58:39;19.80;74.40
4306;DHT22;2166;49.926;8.608;2022-08-01T04:01:09;19.80;74.40
4306;DHT22;2166;49.926;8.608;2022-08-01T04:03:42;19.80;74.40
4306;DHT22;2166;49.926;8.608;2022-08-01T04:06:10;19.70;74.60
4306;DHT22;2166;49.926;8.608;2022-08-01T04:08:40;19.70;74.60
4306;DHT22;2166;49.926;8.608;2022-08-01T04:11:10;19.60;74.70
4306;DHT22;2166;49.926;8.608;2022-08-01T04:13:38;19.60;74.90
4306;DHT22;2166;49.926;8.608;2022-08-01T04:16:11;19.50;75.10
4306;DHT22;2166;49.926;8.608;2022-08-01T04:18:39;19.50;75.20
4306;DHT22;2166;49.926;8.608;2022-08-01T04:21:08;19.40;75.40
4306;DHT22;2166;49.926;8.608;2022-08-01T04:23:38;19.40;75.40
4306;DHT22;2166;49.926;8.608;2022-08-01T04:26:09;19.40;75.40
4306;DHT22;2166;49.926;8.608;2022-08-01T04:28:40;19.40;75.40
4306;DHT22;2166;49.926;8.608;2022-08-01T04:31:11;19.50;75.30
4306;DHT22;2166;49.926;8.608;2022-08-01T04:33:43;19.50;75.30
4306;DHT22;2166;49.926;8.608;2022-08-01T04:36:13;19.50;75.20
4306;DHT22;2166;49.926;8.608;2022-08-01T04:38:45;19.50;75.30
4306;DHT22;2166;49.926;8.608;2022-08-01T04:41:17;19.50;75.40
4306;DHT22;2166;49.926;8.608;2022-08-01T04:43:46;19.50;75.30
4306;DHT22;2166;49.926;8.608;2022-08-01T04:46:17;19.60;75.10
4306;DHT22;2166;49.926;8.608;2022-08-01T04:48:47;19.80;75.00
4306;DHT22;2166;49.926;8.608;2022-08-01T04:51:17;19.90;74.70
4306;DHT22;2166;49.926;8.608;2022-08-01T04:53:49;20.10;74.40
4306;DHT22;2166;49.926;8.608;2022-08-01T04:56:18;20.30;74.00
4306;DHT22;2166;49.926;8.608;2022-08-01T04:58:47;20.50;73.60
4306;DHT22;2166;49.926;8.608;2022-08-01T05:01:49;20.60;73.40
4306;DHT22;2166;49.926;8.608;2022-08-01T05:04:18;20.80;72.90
4306;DHT22;2166;49.926;8.608;2022-08-01T05:06:46;21.00;72.60
4306;DHT22;2166;49.926;8.608;2022-08-01T05:09:14;21.10;72.20
4306;DHT22;2166;49.926;8.608;2022-08-01T05:11:42;21.20;72.30
4306;DHT22;2166;49.926;8.608;2022-08-01T05:14:11;21.40;71.50
4306;DHT22;2166;49.926;8.608;2022-08-01T05:16:39;21.70;71.20
4306;DHT22;2166;49.926;8.608;2022-08-01T05:19:10;21.70;71.00
4306;DHT22;2166;49.926;8.608;2022-08-01T05:21:38;21.90;70.70
4306;DHT22;2166;49.926;8.608;2022-08-01T05:24:06;22.10;70.50
4306;DHT22;2166;49.926;8.608;2022-08-01T05:26:34;22.20;70.00
4306;DHT22;2166;49.926;8.608;2022-08-01T05:29:02;22.40;69.80
4306;DHT22;2166;49.926;8.608;2022-08-01T05:31:31;22.50;69.50
4306;DHT22;2166;49.926;8.608;2022-08-01T05:34:01;22.60;69.40
4306;DHT22;2166;49.926;8.608;2022-08-01T05:36:30;22.60;69.30
4306;DHT22;2166;49.926;8.608;2022-08-01T05:38:58;22.60;69.20
4306;DHT22;2166;49.926;8.608;2022-08-01T05:41:26;22.60;69.30
4306;DHT22;2166;49.926;8.608;2022-08-01T05:43:55;22.50;69.40
4306;DHT22;2166;49.926;8.608;2022-08-01T05:46:23;22.40;69.50
4306;DHT22;2166;49.926;8.608;2022-08-01T05:48:53;22.30;69.60
4306;DHT22;2166;49.926;8.608;2022-08-01T05:51:21;22.40;70.00
4306;DHT22;2166;49.926;8.608;2022-08-01T05:53:51;22.30;69.90
4306;DHT22;2166;49.926;8.608;2022-08-01T05:56:20;22.30;69.90
4306;DHT22;2166;49.926;8.608;2022-08-01T05:58:49;22.40;69.80
4306;DHT22;2166;49.926;8.608;2022-08-01T06:01:18;22.30;69.90
4306;DHT22;2166;49.926;8.608;2022-08-01T06:03:46;22.40;69.90
4306;DHT22;2166;49.926;8.608;2022-08-01T06:06:14;22.50;69.70
4306;DHT22;2166;49.926;8.608;2022-08-01T06:08:43;22.70;69.60
4306;DHT22;2166;49.926;8.608;2022-08-01T06:11:13;22.90;69.20
4306;DHT22;2166;49.926;8.608;2022-08-01T06:13:41;23.20;68.80
4306;DHT22;2166;49.926;8.608;2022-08-01T06:16:14;23.50;68.40
4306;DHT22;2166;49.926;8.608;2022-08-01T06:18:43;23.70;68.00
4306;DHT22;2166;49.926;8.608;2022-08-01T06:21:11;24.00;67.70
4306;DHT22;2166;49.926;8.608;2022-08-01T06:23:39;24.20;67.50
4306;DHT22;2166;49.926;8.608;2022-08-01T06:26:08;24.20;67.50
4306;DHT22;2166;49.926;8.608;2022-08-01T06:28:38;24.40;67.20
4306;DHT22;2166;49.926;8.608;2022-08-01T06:31:06;24.40;67.20
4306;DHT22;2166;49.926;8.608;2022-08-01T06:33:34;24.30;67.40
4306;DHT22;2166;49.926;8.608;2022-08-01T06:36:03;24.50;67.40
4306;DHT22;2166;49.926;8.608;2022-08-01T06:38:31;24.90;66.80
4306;DHT22;2166;49.926;8.608;2022-08-01T06:40:59;25.20;66.30
4306;DHT22;2166;49.926;8.608;2022-08-01T06:43:27;26.00;65.20
4306;DHT22;2166;49.926;8.608;2022-08-01T06:45:57;26.70;64.00
4306;DHT22;2166;49.926;8.608;2022-08-01T06:48:25;27.20;62.80
4306;DHT22;2166;49.926;8.608;2022-08-01T06:50:54;27.40;62.50
4306;DHT22;2166;49.926;8.608;2022-08-01T06:53:36;27.50;61.90
4306;DHT22;2166;49.926;8.608;2022-08-01T06:56:05;27.30;62.20
4306;DHT22;2166;49.926;8.608;2022-08-01T06:58:33;27.00;62.40
4306;DHT22;2166;49.926;8.608;2022-08-01T07:01:04;27.00;62.80
4306;DHT22;2166;49.926;8.608;2022-08-01T07:03:37;26.80;63.10
4306;DHT22;2166;49.926;8.608;2022-08-01T07:06:21;26.90;62.70
4306;DHT22;2166;49.926;8.608;2022-08-01T07:08:50;26.70;62.80
4306;DHT22;2166;49.926;8.608;2022-08-01T07:11:19;26.70;63.30
4306;DHT22;2166;49.926;8.608;2022-08-01T07:13:48;26.90;62.80
4306;DHT22;2166;49.926;8.608;2022-08-01T07:16:18;27.20;61.80
4306;DHT22;2166;49.926;8.608;2022-08-01T07:18:46;27.50;61.60
4306;DHT22;2166;49.926;8.608;2022-08-01T07:21:14;27.90;60.80
4306;DHT22;2166;49.926;8.608;2022-08-01T07:24:03;28.00;60.20
4306;DHT22;2166;49.926;8.608;2022-08-01T07:26:40;28.20;60.20
4306;DHT22;2166;49.926;8.608;2022-08-01T07:29:20;28.30;59.50
4306;DHT22;2166;49.926;8.608;2022-08-01T07:31:50;28.60;59.10
4306;DHT22;2166;49.926;8.608;2022-08-01T07:34:20;28.90;57.90
4306;DHT22;2166;49.926;8.608;2022-08-01T07:36:49;29.50;56.50
4306;DHT22;2166;49.926;8.608;2022-08-01T07:39:17;29.90;55.60
4306;DHT22;2166;49.926;8.608;2022-08-01T07:41:45;30.70;54.40
4306;DHT22;2166;49.926;8.608;2022-08-01T07:44:32;31.70;53.20
4306;DHT22;2166;49.926;8.608;2022-08-01T07:47:02;32.60;50.70
4306;DHT22;2166;49.926;8.608;2022-08-01T07:49:30;32.70;50.10
4306;DHT22;2166;49.926;8.608;2022-08-01T07:52:06;32.80;50.20
4306;DHT22;2166;49.926;8.608;2022-08-01T07:54:34;33.10;50.00
4306;DHT22;2166;49.926;8.608;2022-08-01T07:57:03;33.10;49.60
4306;DHT22;2166;49.926;8.608;2022-08-01T07:59:31;33.00;50.20
4306;DHT22;2166;49.926;8.608;2022-08-01T08:02:00;33.30;49.70
4306;DHT22;2166;49.926;8.608;2022-08-01T08:04:30;33.40;49.10
4306;DHT22;2166;49.926;8.608;2022-08-01T08:06:58;33.10;49.00
4306;DHT22;2166;49.926;8.608;2022-08-01T08:09:26;32.70;49.80
4306;DHT22;2166;49.926;8.608;2022-08-01T08:11:54;32.90;49.60
4306;DHT22;2166;49.926;8.608;2022-08-01T08:14:22;33.60;48.60
4306;DHT22;2166;49.926;8.608;2022-08-01T08:16:58;34.10;47.70
4306;DHT22;2166;49.926;8.608;2022-08-01T08:19:29;34.70;46.70
4306;DHT22;2166;49.926;8.608;2022-08-01T08:22:05;35.60;45.10
4306;DHT22;2166;49.926;8.608;2022-08-01T08:24:34;36.40;43.70
4306;DHT22;2166;49.926;8.608;2022-08-01T08:27:12;36.70;42.90
4306;DHT22;2166;49.926;8.608;2022-08-01T08:29:40;36.70;43.00
4306;DHT22;2166;49.926;8.608;2022-08-01T08:32:08;36.50;43.30
4306;DHT22;2166;49.926;8.608;2022-08-01T08:34:38;36.30;43.30
4306;DHT22;2166;49.926;8.608;2022-08-01T08:37:07;35.90;44.40
4306;DHT22;2166;49.926;8.608;2022-08-01T08:39:36;35.30;44.90
4306;DHT22;2166;49.926;8.608;2022-08-01T08:42:08;34.50;46.80
4306;DHT22;2166;49.926;8.608;2022-08-01T08:44:37;34.00;47.00
4306;DHT22;2166;49.926;8.608;2022-08-01T08:47:11;33.50;47.60
4306;DHT22;2166;49.926;8.608;2022-08-01T08:49:51;32.80;49.10
4306;DHT22;2166;49.926;8.608;2022-08-01T08:52:21;32.20;50.10
4306;DHT22;2166;49.926;8.608;2022-08-01T08:54:50;31.90;50.60
4306;DHT22;2166;49.926;8.608;2022-08-01T08:57:20;31.90;51.00
4306;DHT22;2166;49.926;8.608;2022-08-01T08:59:49;31.60;51.50
4306;DHT22;2166;49.926;8.608;2022-08-01T09:02:18;31.30;52.20
4306;DHT22;2166;49.926;8.608;2022-08-01T09:04:49;31.10;52.50
4306;DHT22;2166;49.926;8.608;2022-08-01T09:07:17;30.70;53.40
4306;DHT22;2166;49.926;8.608;2022-08-01T09:09:46;30.90;53.30
4306;DHT22;2166;49.926;8.608;2022-08-01T09:12:17;31.00;52.90
4306;DHT22;2166;49.926;8.608;2022-08-01T09:14:47;31.20;52.70
4306;DHT22;2166;49.926;8.608;2022-08-01T09:17:17;31.50;52.00
4306;DHT22;2166;49.926;8.608;2022-08-01T09:19:47;32.00;51.60
4306;DHT22;2166;49.926;8.608;2022-08-01T09:22:18;32.70;50.00
4306;DHT22;2166;49.926;8.608;2022-08-01T09:24:59;33.40;48.90
4306;DHT22;2166;49.926;8.608;2022-08-01T09:27:28;33.60;48.10
4306;DHT22;2166;49.926;8.608;2022-08-01T09:30:08;33.70;48.20
4306;DHT22;2166;49.926;8.608;2022-08-01T09:32:55;33.80;47.60
4306;DHT22;2166;49.926;8.608;2022-08-01T09:35:25;33.80;47.80
4306;DHT22;2166;49.926;8.608;2022-08-01T09:38:14;33.80;47.50
4306;DHT22;2166;49.926;8.608;2022-08-01T09:40:47;34.40;46.80
4306;DHT22;2166;49.926;8.608;2022-08-01T09:43:16;34.30;46.20
4306;DHT22;2166;49.926;8.608;2022-08-01T09:45:45;35.40;44.90
4306;DHT22;2166;49.926;8.608;2022-08-01T09:48:17;37.80;42.10
4306;DHT22;2166;49.926;8.608;2022-08-01T09:50:47;38.60;40.30
4306;DHT22;2166;49.926;8.608;2022-08-01T09:53:17;39.90;38.90
4306;DHT22;2166;49.926;8.608;2022-08-01T09:56:08;40.30;38.20
4306;DHT22;2166;49.926;8.608;2022-08-01T09:58:55;40.50;37.50
4306;DHT22;2166;49.926;8.608;2022-08-01T10:01:39;41.60;36.50
4306;DHT22;2166;49.926;8.608;2022-08-01T10:04:10;41.90;35.50
4306;DHT22;2166;49.926;8.608;2022-08-01T10:06:42;41.60;36.30
4306;DHT22;2166;49.926;8.608;2022-08-01T10:09:13;41.70;35.70
4306;DHT22;2166;49.926;8.608;2022-08-01T10:11:42;41.40;36.20
4306;DHT22;2166;49.926;8.608;2022-08-01T10:14:11;41.00;36.80
4306;DHT22;2166;49.926;8.608;2022-08-01T10:16:45;39.90;37.50
4306;DHT22;2166;49.926;8.608;2022-08-01T10:19:31;39.70;37.90
4306;DHT22;2166;49.926;8.608;2022-08-01T10:22:00;39.70;37.70
4306;DHT22;2166;49.926;8.608;2022-08-01T10:24:30;38.80;38.80
4306;DHT22;2166;49.926;8.608;2022-08-01T10:27:03;37.10;41.00
4306;DHT22;2166;49.926;8.608;2022-08-01T10:29:37;36.00;42.90
4306;DHT22;2166;49.926;8.608;2022-08-01T10:32:26;35.00;44.60
4306;DHT22;2166;49.926;8.608;2022-08-01T10:34:55;34.30;45.90
4306;DHT22;2166;49.926;8.608;2022-08-01T10:37:24;34.00;46.20
4306;DHT22;2166;49.926;8.608;2022-08-01T10:39:55;33.80;46.40
4306;DHT22;2166;49.926;8.608;2022-08-01T10:42:44;33.90;46.60
4306;DHT22;2166;49.926;8.608;2022-08-01T10:45:15;34.40;46.20
4306;DHT22;2166;49.926;8.608;2022-08-01T10:47:56;35.70;44.20
4306;DHT22;2166;49.926;8.608;2022-08-01T10:50:31;35.90;43.60
4306;DHT22;2166;49.926;8.608;2022-08-01T10:53:08;37.20;41.30
4306;DHT22;2166;49.926;8.608;2022-08-01T10:55:56;38.40;40.50
4306;DHT22;2166;49.926;8.608;2022-08-01T10:58:29;40.50;37.50
4306;DHT22;2166;49.926;8.608;2022-08-01T11:01:25;39.90;37.90
4306;DHT22;2166;49.926;8.608;2022-08-01T11:04:02;39.40;38.70
4306;DHT22;2166;49.926;8.608;2022-08-01T11:06:41;40.10;37.90
4306;DHT22;2166;49.926;8.608;2022-08-01T11:09:29;41.70;36.50
4306;DHT22;2166;49.926;8.608;2022-08-01T11:12:07;42.50;33.70
4306;DHT22;2166;49.926;8.608;2022-08-01T11:15:23;42.30;33.80
4306;DHT22;2166;49.926;8.608;2022-08-01T11:17:59;43.00;33.60
4306;DHT22;2166;49.926;8.608;2022-08-01T11:20:29;43.80;33.10
4306;DHT22;2166;49.926;8.608;2022-08-01T11:23:23;44.70;31.60
4306;DHT22;2166;49.926;8.608;2022-08-01T11:26:16;44.50;31.40
4306;DHT22;2166;49.926;8.608;2022-08-01T11:29:17;44.70;31.60
4306;DHT22;2166;49.926;8.608;2022-08-01T11:31:49;44.00;32.50
4306;DHT22;2166;49.926;8.608;2022-08-01T11:34:18;43.60;32.60
4306;DHT22;2166;49.926;8.608;2022-08-01T11:36:47;44.20;32.20
4306;DHT22;2166;49.926;8.608;2022-08-01T11:39:31;44.50;31.20
4306;DHT22;2166;49.926;8.608;2022-08-01T11:42:19;44.00;32.00
4306;DHT22;2166;49.926;8.608;2022-08-01T11:44:50;42.70;33.20
4306;DHT22;2166;49.926;8.608;2022-08-01T11:47:45;41.70;33.90
4306;DHT22;2166;49.926;8.608;2022-08-01T11:50:35;40.90;35.10
4306;DHT22;2166;49.926;8.608;2022-08-01T11:53:06;41.20;34.80
4306;DHT22;2166;49.926;8.608;2022-08-01T11:55:45;41.20;34.60
4306;DHT22;2166;49.926;8.608;2022-08-01T11:58:22;42.00;34.30
4306;DHT22;2166;49.926;8.608;2022-08-01T12:00:58;43.10;32.30
4306;DHT22;2166;49.926;8.608;2022-08-01T12:03:28;42.30;33.40
4306;DHT22;2166;49.926;8.608;2022-08-01T12:06:00;41.00;34.60
4306;DHT22;2166;49.926;8.608;2022-08-01T12:08:30;40.60;35.30
4306;DHT22;2166;49.926;8.608;2022-08-01T12:11:00;41.20;34.90
4306;DHT22;2166;49.926;8.608;2022-08-01T12:13:39;42.20;33.90
4306;DHT22;2166;49.926;8.608;2022-08-01T12:16:11;43.60;32.60
4306;DHT22;2166;49.926;8.608;2022-08-01T12:18:40;43.80;31.80
4306;DHT22;2166;49.926;8.608;2022-08-01T12:21:09;43.80;32.20
4306;DHT22;2166;49.926;8.608;2022-08-01T12:23:37;42.50;33.10
4306;DHT22;2166;49.926;8.608;2022-08-01T12:26:05;41.30;34.20
4306;DHT22;2166;49.926;8.608;2022-08-01T12:28:39;40.50;35.60
4306;DHT22;2166;49.926;8.608;2022-08-01T12:31:07;41.70;34.60
4306;DHT22;2166;49.926;8.608;2022-08-01T12:33:39;42.30;32.80
4306;DHT22;2166;49.926;8.608;2022-08-01T12:36:08;41.90;32.90
4306;DHT22;2166;49.926;8.608;2022-08-01T12:38:40;42.10;33.10
4306;DHT22;2166;49.926;8.608;2022-08-01T12:41:10;42.10;32.90
4306;DHT22;2166;49.926;8.608;2022-08-01T12:43:39;41.80;33.40
4306;DHT22;2166;49.926;8.608;2022-08-01T12:46:08;40.80;35.00
4306;DHT22;2166;49.926;8.608;2022-08-01T12:48:44;39.90;36.00
4306;DHT22;2166;49.926;8.608;2022-08-01T12:51:13;39.60;35.50
4306;DHT22;2166;49.926;8.608;2022-08-01T12:53:41;40.30;35.20
4306;DHT22;2166;49.926;8.608;2022-08-01T12:56:09;41.20;35.00
4306;DHT22;2166;49.926;8.608;2022-08-01T12:58:38;42.70;33.60
4306;DHT22;2166;49.926;8.608;2022-08-01T13:01:08;43.70;32.40
4306;DHT22;2166;49.926;8.608;2022-08-01T13:03:38;43.10;32.20
4306;DHT22;2166;49.926;8.608;2022-08-01T13:06:12;42.70;32.80
4306;DHT22;2166;49.926;8.608;2022-08-01T13:08:43;41.70;33.50
4306;DHT22;2166;49.926;8.608;2022-08-01T13:11:13;41.10;33.60
4306;DHT22;2166;49.926;8.608;2022-08-01T13:13:44;40.80;34.30
4306;DHT22;2166;49.926;8.608;2022-08-01T13:16:16;39.70;35.30
4306;DHT22;2166;49.926;8.608;2022-08-01T13:19:05;39.50;36.20
4306;DHT22;2166;49.926;8.608;2022-08-01T13:21:35;38.90;36.70
4306;DHT22;2166;49.926;8.608;2022-08-01T13:24:25;38.40;36.40
4306;DHT22;2166;49.926;8.608;2022-08-01T13:26:55;37.80;37.10
4306;DHT22;2166;49.926;8.608;2022-08-01T13:29:30;37.70;37.70
4306;DHT22;2166;49.926;8.608;2022-08-01T13:31:59;38.00;37.30
4306;DHT22;2166;49.926;8.608;2022-08-01T13:34:32;38.40;37.30
4306;DHT22;2166;49.926;8.608;2022-08-01T13:37:02;39.20;36.10
4306;DHT22;2166;49.926;8.608;2022-08-01T13:39:33;39.40;35.90
4306;DHT22;2166;49.926;8.608;2022-08-01T13:42:14;39.70;36.00
4306;DHT22;2166;49.926;8.608;2022-08-01T13:44:45;39.00;36.90
4306;DHT22;2166;49.926;8.608;2022-08-01T13:47:13;38.30;37.70
4306;DHT22;2166;49.926;8.608;2022-08-01T13:49:43;38.00;37.60
4306;DHT22;2166;49.926;8.608;2022-08-01T13:52:12;37.50;38.40
4306;DHT22;2166;49.926;8.608;2022-08-01T13:54:41;37.40;38.70
4306;DHT22;2166;49.926;8.608;2022-08-01T13:57:09;37.60;38.50
4306;DHT22;2166;49.926;8.608;2022-08-01T13:59:37;37.30;38.60
4306;DHT22;2166;49.926;8.608;2022-08-01T14:02:06;36.40;39.90
4306;DHT22;2166;49.926;8.608;2022-08-01T14:04:35;36.10;40.90
4306;DHT22;2166;49.926;8.608;2022-08-01T14:07:03;35.60;41.30
4306;DHT22;2166;49.926;8.608;2022-08-01T14:09:39;35.50;40.80
4306;DHT22;2166;49.926;8.608;2022-08-01T14:12:27;35.30;40.40
4306;DHT22;2166;49.926;8.608;2022-08-01T14:14:55;35.80;40.30
4306;DHT22;2166;49.926;8.608;2022-08-01T14:17:23;36.30;39.20
4306;DHT22;2166;49.926;8.608;2022-08-01T14:19:54;36.40;39.10
4306;DHT22;2166;49.926;8.608;2022-08-01T14:22:23;36.60;39.30
4306;DHT22;2166;49.926;8.608;2022-08-01T14:24:52;36.50;39.70
4306;DHT22;2166;49.926;8.608;2022-08-01T14:27:27;36.70;39.20
4306;DHT22;2166;49.926;8.608;2022-08-01T14:29:57;36.80;39.10
4306;DHT22;2166;49.926;8.608;2022-08-01T14:32:29;36.90;39.10
4306;DHT22;2166;49.926;8.608;2022-08-01T14:34:59;36.60;40.00
4306;DHT22;2166;49.926;8.608;2022-08-01T14:37:28;36.00;40.80
4306;DHT22;2166;49.926;8.608;2022-08-01T14:40:06;35.60;41.40
4306;DHT22;2166;49.926;8.608;2022-08-01T14:42:36;35.20;42.20
4306;DHT22;2166;49.926;8.608;2022-08-01T14:45:06;35.10;41.70
4306;DHT22;2166;49.926;8.608;2022-08-01T14:47:36;35.20;41.10
4306;DHT22;2166;49.926;8.608;2022-08-01T14:50:06;35.30;41.00
4306;DHT22;2166;49.926;8.608;2022-08-01T14:52:35;35.20;41.20
4306;DHT22;2166;49.926;8.608;2022-08-01T14:55:07;35.20;41.40
4306;DHT22;2166;49.926;8.608;2022-08-01T14:57:36;35.00;41.70
4306;DHT22;2166;49.926;8.608;2022-08-01T15:00:06;35.10;41.70
4306;DHT22;2166;49.926;8.608;2022-08-01T15:02:36;35.10;41.40
4306;DHT22;2166;49.926;8.608;2022-08-01T15:05:06;35.10;41.30
4306;DHT22;2166;49.926;8.608;2022-08-01T15:07:34;34.80;41.60
4306;DHT22;2166;49.926;8.608;2022-08-01T15:10:20;34.60;42.00
4306;DHT22;2166;49.926;8.608;2022-08-01T15:12:48;34.30;42.70
4306;DHT22;2166;49.926;8.608;2022-08-01T15:15:16;34.00;42.80
4306;DHT22;2166;49.926;8.608;2022-08-01T15:17:46;33.40;43.70
4306;DHT22;2166;49.926;8.608;2022-08-01T15:20:14;33.10;44.60
4306;DHT22;2166;49.926;8.608;2022-08-01T15:22:42;32.50;45.80
4306;DHT22;2166;49.926;8.608;2022-08-01T15:25:10;31.90;46.20
4306;DHT22;2166;49.926;8.608;2022-08-01T15:27:40;31.30;47.30
4306;DHT22;2166;49.926;8.608;2022-08-01T15:30:09;30.70;50.50
4306;DHT22;2166;49.926;8.608;2022-08-01T15:32:37;30.00;54.00
4306;DHT22;2166;49.926;8.608;2022-08-01T15:35:06;29.20;57.10
4306;DHT22;2166;49.926;8.608;2022-08-01T15:37:37;28.30;61.40
4306;DHT22;2166;49.926;8.608;2022-08-01T15:40:09;27.00;64.70
4306;DHT22;2166;49.926;8.608;2022-08-01T15:42:40;25.80;65.50
4306;DHT22;2166;49.926;8.608;2022-08-01T15:45:08;25.10;66.50
4306;DHT22;2166;49.926;8.608;2022-08-01T15:47:57;24.40;68.80
4306;DHT22;2166;49.926;8.608;2022-08-01T15:50:25;23.40;72.20
4306;DHT22;2166;49.926;8.608;2022-08-01T15:52:53;22.60;74.50
4306;DHT22;2166;49.926;8.608;2022-08-01T15:55:22;21.80;73.50
4306;DHT22;2166;49.926;8.608;2022-08-01T15:57:52;21.20;75.00
4306;DHT22;2166;49.926;8.608;2022-08-01T16:00:20;20.80;75.50
4306;DHT22;2166;49.926;8.608;2022-08-01T16:02:48;20.70;77.60
4306;DHT22;2166;49.926;8.608;2022-08-01T16:05:16;20.60;77.40
4306;DHT22;2166;49.926;8.608;2022-08-01T16:07:46;20.70;78.50
4306;DHT22;2166;49.926;8.608;2022-08-01T16:10:27;20.80;79.10
4306;DHT22;2166;49.926;8.608;2022-08-01T16:12:57;21.00;79.10
4306;DHT22;2166;49.926;8.608;2022-08-01T16:15:33;21.20;79.30
4306;DHT22;2166;49.926;8.608;2022-08-01T16:18:03;21.40;79.00
4306;DHT22;2166;49.926;8.608;2022-08-01T16:20:32;21.50;78.70
4306;DHT22;2166;49.926;8.608;2022-08-01T16:23:01;21.70;78.10
4306;DHT22;2166;49.926;8.608;2022-08-01T16:25:29;22.20;77.10
4306;DHT22;2166;49.926;8.608;2022-08-01T16:27:59;22.50;76.70
4306;DHT22;2166;49.926;8.608;2022-08-01T16:30:27;22.90;75.80
4306;DHT22;2166;49.926;8.608;2022-08-01T16:32:57;23.20;75.20